createdAt,value
2019-05-11T00:00:30.287Z,6.80
2019-05-11T00:05:34.729Z,6.78
2019-05-11T00:10:39.165Z,8.25
2019-05-11T00:15:43.525Z,7.85
2019-05-11T00:20:47.941Z,6.83
2019-05-11T00:25:52.387Z,7.90
2019-05-11T00:30:56.921Z,8.20
2019-05-11T00:36:01.790Z,9.20
2019-05-11T00:41:06.220Z,9.15
2019-05-11T00:46:10.614Z,9.73
2019-05-11T00:51:14.894Z,8.78
2019-05-11T00:56:19.323Z,8.45
2019-05-11T01:01:24.192Z,8.80
2019-05-11T01:06:28.481Z,9.23
2019-05-11T01:11:32.847Z,8.43
2019-05-11T01:16:37.118Z,8.53
2019-05-11T01:21:41.526Z,8.25
2019-05-11T01:26:45.961Z,9.15
2019-05-11T01:31:50.241Z,8.58
2019-05-11T01:36:54.494Z,9.68
2019-05-11T01:41:58.744Z,10.48
2019-05-11T01:47:02.984Z,10.50
2019-05-11T01:52:07.259Z,10.20
2019-05-11T01:57:11.676Z,10.25
2019-05-11T02:02:15.945Z,11.65
2019-05-11T02:07:20.349Z,10.70
2019-05-11T02:12:24.609Z,11.22
2019-05-11T02:17:29.001Z,10.28
2019-05-11T02:22:33.264Z,9.80
2019-05-11T02:27:37.696Z,10.72
2019-05-11T02:33:00.884Z,10.28
2019-05-11T02:38:05.232Z,9.88
2019-05-11T02:43:09.479Z,10.10
2019-05-11T02:48:13.728Z,9.13
2019-05-11T02:53:18.569Z,9.30
2019-05-11T02:58:22.796Z,9.60
2019-05-11T03:03:27.037Z,9.70
2019-05-11T03:08:31.266Z,9.53
2019-05-11T03:13:35.491Z,9.17
2019-05-11T03:18:39.721Z,9.45
2019-05-11T03:23:43.957Z,9.53
2019-05-11T03:28:48.189Z,9.77
2019-05-11T03:33:52.433Z,12.85
2019-05-11T03:38:56.680Z,15.85
2019-05-11T03:44:00.931Z,11.83
2019-05-11T03:49:05.179Z,15.73
2019-05-11T03:54:09.408Z,21.40
2019-05-11T03:59:13.653Z,34.65
2019-05-11T04:04:17.884Z,24.47
2019-05-11T04:09:22.129Z,20.10
2019-05-11T04:14:26.382Z,19.02
2019-05-11T04:19:30.719Z,15.05
2019-05-11T04:24:34.979Z,12.93
2019-05-11T04:29:39.440Z,11.33
2019-05-11T04:34:43.782Z,10.13
2019-05-11T04:39:48.169Z,8.78
2019-05-11T04:44:52.759Z,8.80
2019-05-11T04:49:57.158Z,8.18
2019-05-11T04:55:01.394Z,8.68
2019-05-11T05:00:06.469Z,7.33
2019-05-11T05:05:10.919Z,7.90
2019-05-11T05:10:19.854Z,7.95
2019-05-11T05:15:21.287Z,7.65
2019-05-11T05:20:25.532Z,8.20
2019-05-11T05:25:29.966Z,7.37
2019-05-11T05:30:34.505Z,7.37
2019-05-11T05:35:38.751Z,7.60
2019-05-11T05:40:42.992Z,7.47
2019-05-11T05:45:47.335Z,7.17
2019-05-11T05:50:51.567Z,7.05
2019-05-11T05:55:55.801Z,6.58
2019-05-11T06:01:00.136Z,5.83
2019-05-11T06:06:04.369Z,5.35
2019-05-11T06:11:08.648Z,5.87
2019-05-11T06:16:12.880Z,5.75
2019-05-11T06:21:17.106Z,5.10
2019-05-11T06:26:21.340Z,4.08
2019-05-11T06:31:25.587Z,4.62
2019-05-11T06:36:29.821Z,4.35
2019-05-11T06:41:34.227Z,3.87
2019-05-11T06:46:38.629Z,3.15
2019-05-11T06:51:42.857Z,2.77
2019-05-11T06:56:47.210Z,2.80
2019-05-11T07:01:51.546Z,2.67
2019-05-11T07:06:55.835Z,2.77
2019-05-11T07:12:00.131Z,3.12
2019-05-11T07:17:04.491Z,2.98
2019-05-11T07:22:08.723Z,2.70
2019-05-11T07:27:13.052Z,2.65
2019-05-11T07:32:25.108Z,3.17
2019-05-11T07:37:24.326Z,2.70
2019-05-11T07:42:28.861Z,3.00
2019-05-11T07:47:33.261Z,2.95
2019-05-11T07:52:37.972Z,2.30
2019-05-11T07:57:42.399Z,2.40
2019-05-11T08:02:48.030Z,2.40
2019-05-11T08:07:52.407Z,2.30
2019-05-11T08:12:58.749Z,2.40
2019-05-11T08:18:02.649Z,2.72
2019-05-11T08:23:08.986Z,2.52
2019-05-11T08:28:12.923Z,2.20
2019-05-11T08:33:18.155Z,2.25
2019-05-11T08:38:22.628Z,2.35
2019-05-11T08:43:28.521Z,2.58
2019-05-11T08:48:32.906Z,5.28
2019-05-11T08:53:38.700Z,2.40
2019-05-11T08:58:43.200Z,2.95
2019-05-11T09:03:48.027Z,3.75
2019-05-11T09:08:52.235Z,4.50
2019-05-11T09:13:57.872Z,2.62
2019-05-11T09:19:02.377Z,2.25
2019-05-11T09:24:08.412Z,1.92
2019-05-11T09:29:12.622Z,1.75
2019-05-11T09:34:18.078Z,1.82
2019-05-11T09:39:22.559Z,2.30
2019-05-11T09:44:28.798Z,2.12
2019-05-11T09:49:43.967Z,2.65
2019-05-11T09:54:38.768Z,2.27
2019-05-11T09:59:43.099Z,2.37
2019-05-11T10:04:48.401Z,2.55
2019-05-11T10:09:52.724Z,2.75
2019-05-11T10:14:59.085Z,2.45
2019-05-11T10:20:03.066Z,2.45
2019-05-11T10:25:08.998Z,2.52
2019-05-11T10:30:13.703Z,2.15
2019-05-11T10:35:18.537Z,4.12
2019-05-11T10:40:22.974Z,4.12
2019-05-11T10:45:28.561Z,2.60
2019-05-11T10:50:32.949Z,2.70
2019-05-11T10:55:38.621Z,2.55
2019-05-11T11:00:43.176Z,3.42
2019-05-11T11:05:48.788Z,3.00
2019-05-11T11:10:53.205Z,2.42
2019-05-11T11:15:59.020Z,2.70
2019-05-11T11:21:03.436Z,4.22
2019-05-11T11:26:08.328Z,3.15
2019-05-11T11:31:12.647Z,3.33
2019-05-11T11:36:17.962Z,4.97
2019-05-11T11:41:22.332Z,3.00
2019-05-11T11:46:27.800Z,2.83
2019-05-11T11:51:32.106Z,2.98
2019-05-11T11:56:38.004Z,3.25
2019-05-11T12:01:43.732Z,3.42
2019-05-11T12:06:49.094Z,2.92
2019-05-11T12:11:53.428Z,3.17
2019-05-11T12:17:06.988Z,3.02
2019-05-11T12:22:03.652Z,2.77
2019-05-11T12:27:07.894Z,2.77
2019-05-11T12:32:18.579Z,3.75
2019-05-11T12:37:22.920Z,3.12
2019-05-11T12:42:28.419Z,3.00
2019-05-11T12:47:32.700Z,3.52
2019-05-11T12:52:38.334Z,4.22
2019-05-11T12:57:42.695Z,3.55
2019-05-11T13:02:48.509Z,3.33
2019-05-11T13:07:52.998Z,3.45
2019-05-11T13:12:58.171Z,3.72
2019-05-11T13:18:02.592Z,8.40
2019-05-11T13:23:07.992Z,5.00
2019-05-11T13:28:12.466Z,3.22
2019-05-11T13:33:18.788Z,3.40
2019-05-11T13:38:22.805Z,3.55
2019-05-11T13:43:28.057Z,3.80
2019-05-11T13:48:32.598Z,4.50
2019-05-11T13:53:37.643Z,3.98
2019-05-11T13:58:42.498Z,3.87
2019-05-11T14:03:48.438Z,3.70
2019-05-11T14:08:52.720Z,3.75
2019-05-11T14:13:58.463Z,3.77
2019-05-11T14:19:02.817Z,4.20
2019-05-11T14:24:07.781Z,4.65
2019-05-11T14:29:12.307Z,17.98
2019-05-11T14:34:18.124Z,5.37
2019-05-11T14:39:23.109Z,4.50
2019-05-11T14:44:28.541Z,4.28
2019-05-11T14:49:33.002Z,4.47
2019-05-11T14:54:38.211Z,4.40
2019-05-11T14:59:42.680Z,4.35
2019-05-11T15:04:48.391Z,4.50
2019-05-11T15:09:52.795Z,4.90
2019-05-11T15:14:59.025Z,4.40
2019-05-11T15:20:03.047Z,4.50
2019-05-11T15:25:08.972Z,4.08
2019-05-11T15:30:14.959Z,4.22
2019-05-11T15:35:19.269Z,3.90
2019-05-11T15:40:23.908Z,21.15
2019-05-11T15:45:28.238Z,5.03
2019-05-11T15:50:32.474Z,4.33
2019-05-11T15:55:39.362Z,4.53
2019-05-11T16:00:42.703Z,3.95
2019-05-11T16:05:47.934Z,4.37
2019-05-11T16:10:52.299Z,4.47
2019-05-11T16:15:57.761Z,4.85
2019-05-11T16:21:02.315Z,5.00
2019-05-11T16:26:08.539Z,4.90
2019-05-11T16:31:12.525Z,4.70
2019-05-11T16:36:17.981Z,4.90
2019-05-11T16:41:22.486Z,4.90
2019-05-11T16:46:28.440Z,4.12
2019-05-11T16:51:32.862Z,5.65
2019-05-11T16:56:38.254Z,5.03
2019-05-11T17:01:42.788Z,5.05
2019-05-11T17:06:48.679Z,5.00
2019-05-11T17:11:53.138Z,5.45
2019-05-11T17:16:58.557Z,5.00
2019-05-11T17:22:02.931Z,4.53
2019-05-11T17:27:08.813Z,4.78
2019-05-11T17:32:17.761Z,8.18
2019-05-11T17:37:22.212Z,6.30
2019-05-11T17:42:26.499Z,4.35
2019-05-11T17:47:30.793Z,5.03
2019-05-11T17:52:35.105Z,6.50
2019-05-11T17:57:39.359Z,4.87
2019-05-11T18:02:43.650Z,4.50
2019-05-11T18:07:47.945Z,4.40
2019-05-11T18:12:52.340Z,4.42
2019-05-11T18:17:58.798Z,4.37
2019-05-11T18:23:03.112Z,6.05
2019-05-11T18:28:07.570Z,5.10
2019-05-11T18:33:12.010Z,5.15
2019-05-11T18:38:17.847Z,5.37
2019-05-11T18:43:22.257Z,5.37
2019-05-11T18:48:28.665Z,5.17
2019-05-11T18:53:32.609Z,5.92
2019-05-11T18:58:38.355Z,5.72
2019-05-11T19:03:42.809Z,5.92
2019-05-11T19:08:47.880Z,5.10
2019-05-11T19:13:53.286Z,4.30
2019-05-11T19:18:58.607Z,3.77
2019-05-11T19:24:06.032Z,4.37
2019-05-11T19:29:10.036Z,4.37
2019-05-11T19:34:14.516Z,4.08
2019-05-11T19:39:19.402Z,3.72
2019-05-11T19:44:23.941Z,3.42
2019-05-11T19:49:28.287Z,3.33
2019-05-11T19:54:32.588Z,3.75
2019-05-11T19:59:38.703Z,3.55
2019-05-11T20:04:43.260Z,3.05
2019-05-11T20:09:47.573Z,3.40
2019-05-11T20:14:51.845Z,3.95
2019-05-11T20:19:58.117Z,4.70
2019-05-11T20:25:02.258Z,3.40
2019-05-11T20:30:08.601Z,2.80
2019-05-11T20:35:13.544Z,3.42
2019-05-11T20:40:18.463Z,2.80
2019-05-11T20:45:23.017Z,4.40
2019-05-11T20:50:27.289Z,2.35
2019-05-11T20:55:31.542Z,2.05
2019-05-11T21:00:38.199Z,1.85
2019-05-11T21:05:41.980Z,2.20
2019-05-11T21:10:48.790Z,1.60
2019-05-11T21:15:52.426Z,1.42
2019-05-11T21:20:57.713Z,1.57
2019-05-11T21:26:02.138Z,1.75
2019-05-11T21:31:08.046Z,1.60
2019-05-11T21:36:12.538Z,2.47
2019-05-11T21:41:16.806Z,1.87
2019-05-11T21:46:21.069Z,3.10
2019-05-11T21:51:25.494Z,1.80
2019-05-11T21:56:29.946Z,1.87
2019-05-11T22:01:34.381Z,2.17
2019-05-11T22:06:39.209Z,2.00
2019-05-11T22:11:43.587Z,1.70
2019-05-11T22:16:48.077Z,2.00
2019-05-11T22:21:52.316Z,1.90
2019-05-11T22:26:57.487Z,2.08
2019-05-11T22:32:02.518Z,2.92
2019-05-11T22:37:08.654Z,1.98
2019-05-11T22:42:12.754Z,2.03
2019-05-11T22:47:17.811Z,1.93
2019-05-11T22:52:35.430Z,2.20
2019-05-11T22:57:28.277Z,2.33
2019-05-11T23:02:32.517Z,2.20
2019-05-11T23:07:37.673Z,2.20
2019-05-11T23:12:42.734Z,2.75
2019-05-11T23:17:46.972Z,2.17
2019-05-11T23:22:58.017Z,2.17
2019-05-11T23:27:58.811Z,2.05
2019-05-11T23:33:03.132Z,2.47
2019-05-11T23:38:07.374Z,3.20
2019-05-11T23:43:11.608Z,2.93
2019-05-11T23:48:15.835Z,2.43
2019-05-11T23:53:20.069Z,2.30
2019-05-11T23:58:24.287Z,2.70
